Time;durP1;ratioP1;P1;durP2;ratioP2;P2;SDS_P1;SDS_P2;PMS_P1;PMS_P2;Temp;Humidity;BMP_temperature;BMP_pressure;BME280_temperature;BME280_humidity;BME280_pressure;Samples;Min_cycle;Max_cycle;Signal;HPM_P1;HPM_P2
2022/10/05 05:01:43;;;;;;;13.13;8.27;;;8.30;99.90;;;;;;6080998;23;21330;31
2022/10/05 05:04:32;;;;;;;11.48;7.85;;;8.30;99.90;;;;;;6129231;23;20299;-77
2022/10/05 05:07:46;;;;;;;14.70;8.48;;;8.20;99.90;;;;;;6125963;23;20089;-78
2022/10/05 05:10:34;;;;;;;16.92;9.20;;;8.20;99.90;;;;;;6127091;23;20009;-77
2022/10/05 05:13:26;;;;;;;17.02;9.23;;;8.20;99.90;;;;;;6129017;23;20224;-81
2022/10/05 05:16:23;;;;;;;14.60;8.70;;;8.10;99.90;;;;;;6129667;23;20012;-77
2022/10/05 05:19:13;;;;;;;15.15;8.68;;;8.10;99.90;;;;;;6128996;23;20003;-76
2022/10/05 05:22:26;;;;;;;11.93;7.68;;;8.10;99.90;;;;;;6129075;23;20248;-76
2022/10/05 05:25:32;;;;;;;15.13;8.38;;;8.00;99.90;;;;;;6133350;23;20070;-76
2022/10/05 05:28:51;;;;;;;13.77;8.50;;;8.00;99.90;;;;;;6125203;23;20082;-78
2022/10/05 05:31:59;;;;;;;13.98;8.73;;;8.10;99.90;;;;;;6105429;23;20038;-78
2022/10/05 05:35:07;;;;;;;13.25;8.75;;;8.00;99.90;;;;;;6104404;23;20030;-78
2022/10/05 05:38:00;;;;;;;12.15;9.00;;;8.00;99.90;;;;;;6124994;23;20319;-77
2022/10/05 05:41:03;;;;;;;13.75;8.40;;;8.10;99.90;;;;;;6125101;23;20053;-78
2022/10/05 05:44:19;;;;;;;15.50;9.40;;;8.10;99.90;;;;;;6105516;23;20073;-78
2022/10/05 05:47:18;;;;;;;12.48;8.73;;;8.10;99.90;;;;;;6105340;23;20281;-78
2022/10/05 05:50:23;;;;;;;16.45;8.95;;;8.10;99.90;;;;;;6125140;23;20021;-79
2022/10/05 05:53:30;;;;;;;13.75;8.73;;;8.20;99.90;;;;;;6105434;23;20073;-78
2022/10/05 05:56:33;;;;;;;13.60;8.13;;;8.30;99.90;;;;;;6104943;23;20067;-78
2022/10/05 05:59:43;;;;;;;13.38;8.15;;;8.40;99.90;;;;;;6123230;23;20081;-77
2022/10/05 06:02:13;;;;;;;12.57;8.27;;;8.40;99.90;;;;;;6116995;23;20188;-78
2022/10/05 06:04:54;;;;;;;13.48;8.50;;;8.40;99.90;;;;;;6157194;23;19998;-77
2022/10/05 06:07:26;;;;;;;12.70;8.18;;;8.40;99.90;;;;;;6155896;23;20020;-78
2022/10/05 06:09:55;;;;;;;12.13;8.05;;;8.40;99.90;;;;;;6132334;23;20014;-77
2022/10/05 06:12:37;;;;;;;14.27;9.10;;;8.50;99.90;;;;;;6131792;23;20387;-78
2022/10/05 06:15:26;;;;;;;12.35;8.18;;;8.50;99.90;;;;;;6131999;23;20033;-77
2022/10/05 06:17:57;;;;;;;10.27;7.40;;;8.60;99.90;;;;;;6156027;23;20018;-77
2022/10/05 06:20:30;;;;;;;12.02;7.53;;;8.70;99.90;;;;;;6131420;23;20022;-79
2022/10/05 06:23:01;;;;;;;12.27;7.88;;;8.80;99.90;;;;;;6131578;23;20011;-78
2022/10/05 06:25:43;;;;;;;10.02;6.82;;;8.90;99.90;;;;;;6131404;23;20064;-77
2022/10/05 06:28:11;;;;;;;10.82;7.47;;;9.00;99.90;;;;;;6133782;23;20002;-77
2022/10/05 06:31:02;;;;;;;11.35;7.40;;;9.00;99.90;;;;;;6132203;23;20006;-77
2022/10/05 06:33:45;;;;;;;27.30;17.92;;;9.10;99.90;;;;;;6155920;23;20021;-78
2022/10/05 06:36:34;;;;;;;16.15;11.13;;;9.30;99.90;;;;;;6131765;23;20290;-77
2022/10/05 06:39:07;;;;;;;17.02;11.15;;;9.40;99.90;;;;;;6131697;23;20234;-78
2022/10/05 06:41:46;;;;;;;17.17;10.77;;;9.60;99.90;;;;;;6131105;23;20009;-78
2022/10/05 06:44:19;;;;;;;12.60;8.43;;;9.70;99.90;;;;;;6133488;23;20006;-78
2022/10/05 06:47:30;;;;;;;10.77;7.20;;;9.80;99.90;;;;;;6133322;23;20014;-78
2022/10/05 06:50:37;;;;;;;11.57;6.75;;;9.90;99.90;;;;;;6127873;23;20011;-78
2022/10/05 06:53:27;;;;;;;11.75;6.95;;;10.00;99.90;;;;;;6131136;23;20211;-78
2022/10/05 06:56:08;;;;;;;9.63;6.72;;;10.20;99.90;;;;;;6132213;23;20096;-79
2022/10/05 06:58:53;;;;;;;11.45;6.60;;;10.30;99.90;;;;;;6155230;23;20010;-78
2022/10/05 07:01:59;;;;;;;15.48;6.68;;;10.40;99.90;;;;;;6131132;23;20006;-78
2022/10/05 07:04:37;;;;;;;10.85;6.50;;;10.60;99.90;;;;;;6130440;23;20018;-78
2022/10/05 07:07:14;;;;;;;8.45;5.95;;;10.70;99.90;;;;;;6131740;23;20006;-78
2022/10/05 07:09:48;;;;;;;11.73;7.53;;;10.70;99.90;;;;;;6131132;23;20013;-79
2022/10/05 07:12:42;;;;;;;12.95;8.38;;;10.90;99.90;;;;;;6132065;23;20006;-79
2022/10/05 07:15:51;;;;;;;9.45;6.65;;;10.90;99.90;;;;;;6131894;23;20017;-79
2022/10/05 07:18:38;;;;;;;10.27;6.03;;;11.00;99.90;;;;;;6156368;23;20021;-78
2022/10/05 07:21:10;;;;;;;14.15;6.18;;;11.10;99.90;;;;;;6131663;23;20006;-79
2022/10/05 07:23:51;;;;;;;9.25;5.43;;;11.20;99.90;;;;;;6155323;23;20049;-79
2022/10/05 07:26:38;;;;;;;10.98;6.00;;;11.20;99.90;;;;;;6155366;23;20002;-79
2022/10/05 07:29:28;;;;;;;13.90;6.18;;;11.30;99.90;;;;;;6131713;23;20006;-80
2022/10/05 07:32:08;;;;;;;9.88;6.07;;;11.40;99.90;;;;;;6131301;23;20014;-79
2022/10/05 07:38:26;;;;;;;9.80;5.38;;;11.40;99.90;;;;;;6130002;23;20009;-79
2022/10/05 07:41:15;;;;;;;10.63;5.05;;;11.40;99.90;;;;;;6105551;23;20006;-79
2022/10/05 07:43:47;;;;;;;10.30;5.70;;;11.50;99.90;;;;;;6129273;23;20029;-78
2022/10/05 07:46:52;;;;;;;9.73;6.13;;;11.40;99.90;;;;;;6129727;23;20069;-77
2022/10/05 07:49:37;;;;;;;11.00;5.82;;;11.50;99.90;;;;;;6129475;23;20006;-77
2022/10/05 07:52:24;;;;;;;9.20;5.68;;;11.50;99.90;;;;;;6132053;23;20006;-77
2022/10/05 07:55:11;;;;;;;8.30;5.70;;;11.60;99.90;;;;;;6132107;23;20098;-79
2022/10/05 07:57:52;;;;;;;9.52;5.45;;;11.70;99.90;;;;;;6131242;23;20069;-79
2022/10/05 08:00:22;;;;;;;10.15;5.40;;;11.90;99.90;;;;;;6131481;23;20013;-80
2022/10/05 08:03:01;;;;;;;11.13;6.40;;;12.00;99.90;;;;;;6131735;23;20013;-79
2022/10/05 08:05:32;;;;;;;8.43;5.35;;;12.00;99.90;;;;;;6131323;23;20377;-79
2022/10/05 08:08:35;;;;;;;9.20;5.13;;;12.10;99.90;;;;;;6132660;23;20010;-80
2022/10/05 08:11:10;;;;;;;8.57;5.28;;;12.10;99.90;;;;;;6132820;23;20032;-78
2022/10/05 08:14:01;;;;;;;10.82;5.95;;;12.20;99.90;;;;;;6132182;23;20021;-79
2022/10/05 08:16:34;;;;;;;9.88;5.47;;;12.30;99.90;;;;;;6134768;23;20034;-79
2022/10/05 08:19:32;;;;;;;9.00;5.65;;;12.50;99.90;;;;;;6134823;23;20243;-78
2022/10/05 08:22:09;;;;;;;9.68;5.70;;;12.60;99.90;;;;;;6112452;23;20069;-79
2022/10/05 08:24:50;;;;;;;7.88;5.38;;;12.70;99.90;;;;;;6134613;23;20032;-80
2022/10/05 08:27:34;;;;;;;9.63;5.65;;;12.70;99.90;;;;;;6133100;23;20006;-79
2022/10/05 08:30:11;;;;;;;8.05;5.40;;;12.80;99.90;;;;;;6134517;23;20030;-80
2022/10/05 08:33:06;;;;;;;9.40;5.47;;;12.90;99.90;;;;;;6133744;23;20048;-78
2022/10/05 08:35:42;;;;;;;10.25;6.07;;;12.90;99.90;;;;;;6132288;23;20069;-79
2022/10/05 08:38:30;;;;;;;10.23;6.45;;;13.00;99.90;;;;;;6133083;23;20291;-78
2022/10/05 08:41:28;;;;;;;20.43;15.33;;;13.10;99.90;;;;;;6133201;23;20045;-78
2022/10/05 08:43:56;;;;;;;17.20;7.40;;;13.30;99.90;;;;;;6102093;23;20407;-79
2022/10/05 08:46:30;;;;;;;;;;;13.40;99.90;;;;;;6102698;23;20014;-78
2022/10/05 08:49:09;;;;;;;13.35;6.50;;;13.60;99.90;;;;;;6131735;23;19901;-79
2022/10/05 08:51:59;;;;;;;9.15;5.70;;;13.70;99.90;;;;;;6131803;23;20083;-79
2022/10/05 08:54:46;;;;;;;10.25;5.95;;;13.80;99.90;;;;;;6132235;23;20208;-82
2022/10/05 08:58:16;;;;;;;9.73;5.73;;;13.90;99.90;;;;;;6133985;23;19998;-81
2022/10/05 09:00:54;;;;;;;10.30;5.93;;;14.10;99.90;;;;;;6101950;23;20006;-78
2022/10/05 09:03:54;;;;;;;9.25;5.57;;;14.30;99.90;;;;;;6077667;23;20102;-81
2022/10/05 09:06:55;;;;;;;10.65;6.78;;;14.40;99.90;;;;;;6125557;23;20014;-80
2022/10/05 09:09:47;;;;;;;21.25;14.88;;;14.50;99.90;;;;;;6131032;23;20384;-79
2022/10/05 09:12:50;;;;;;;9.43;5.88;;;14.60;99.90;;;;;;6134053;23;20017;-80
2022/10/05 09:15:56;;;;;;;17.60;7.03;;;14.70;99.90;;;;;;6134138;23;20017;-80
2022/10/05 09:18:55;;;;;;;11.40;6.35;;;14.70;99.90;;;;;;6131863;23;20079;-83
2022/10/05 09:21:55;;;;;;;11.40;7.00;;;14.80;99.90;;;;;;6132338;23;20006;-79
2022/10/05 09:24:26;;;;;;;8.07;5.63;;;15.00;99.90;;;;;;6132380;23;20002;-77
2022/10/05 09:27:16;;;;;;;9.93;5.93;;;15.10;99.90;;;;;;6133888;23;20018;-77
2022/10/05 09:29:57;;;;;;;11.88;6.45;;;15.20;99.90;;;;;;6133368;23;20068;-79
2022/10/05 09:32:31;;;;;;;15.45;6.25;;;15.30;99.90;;;;;;6133992;23;20005;-80
2022/10/05 09:42:57;;;;;;;8.10;5.32;;;15.80;99.90;;;;;;6133531;23;20065;-77
2022/10/05 09:45:57;;;;;;;10.27;5.50;;;16.10;99.90;;;;;;6131611;23;20001;-79
2022/10/05 09:48:52;;;;;;;10.93;4.78;;;16.30;99.90;;;;;;6134036;23;20006;-81
2022/10/05 09:51:41;;;;;;;7.90;4.43;;;16.50;99.90;;;;;;6142871;23;20006;-79
2022/10/05 09:54:28;;;;;;;8.32;4.55;;;16.70;99.90;;;;;;6139547;23;20009;-77
2022/10/05 09:57:20;;;;;;;11.07;5.55;;;16.80;99.90;;;;;;6133824;23;20032;-82
2022/10/05 10:00:08;;;;;;;9.52;5.15;;;17.00;99.90;;;;;;6133400;23;20299;-80
2022/10/05 10:03:14;;;;;;;7.82;4.38;;;17.10;99.90;;;;;;6133328;23;20010;-78
2022/10/05 10:05:58;;;;;;;8.73;5.20;;;17.30;99.90;;;;;;6132781;23;20422;-76
2022/10/05 10:08:38;;;;;;;7.75;4.75;;;17.40;99.90;;;;;;6131711;23;20013;-78
2022/10/05 10:11:25;;;;;;;10.02;4.80;;;17.60;99.90;;;;;;6156870;23;20025;-80
2022/10/05 10:13:56;;;;;;;7.72;4.57;;;17.80;99.90;;;;;;6133162;23;20288;-76
2022/10/05 10:17:00;;;;;;;13.27;8.35;;;17.90;99.90;;;;;;6155946;23;20239;-77
2022/10/05 10:23:31;;;;;;;7.00;4.10;;;18.20;99.90;;;;;;6081162;23;20200;-80
2022/10/05 10:26:17;;;;;;;10.35;4.38;;;18.50;99.90;;;;;;6101738;23;20010;-78
2022/10/05 10:29:02;;;;;;;7.68;4.10;;;18.70;99.90;;;;;;6101068;23;20256;-78
2022/10/05 10:32:06;;;;;;;7.65;3.90;;;19.00;99.90;;;;;;6100918;23;20057;-76
2022/10/05 10:34:54;;;;;;;10.00;4.53;;;19.20;99.90;;;;;;6084643;23;20014;-78
2022/10/05 10:37:41;;;;;;;9.85;4.60;;;19.50;99.90;;;;;;6101678;23;20287;-80
2022/10/05 10:40:41;;;;;;;7.82;4.20;;;19.70;99.90;;;;;;6101963;23;20022;-77
2022/10/05 10:43:48;;;;;;;8.23;4.35;;;20.00;99.90;;;;;;6101556;23;20318;-79
2022/10/05 10:46:38;;;;;;;10.60;4.23;;;20.40;99.90;;;;;;6101338;23;20091;-78
2022/10/05 10:49:23;;;;;;;10.40;3.83;;;20.80;99.60;;;;;;6101436;23;20422;-79
2022/10/05 10:52:05;;;;;;;7.28;3.50;;;21.40;98.80;;;;;;6101444;23;20010;-80
2022/10/05 10:54:51;;;;;;;7.72;3.40;;;21.90;97.60;;;;;;6100763;23;20041;-78
2022/10/05 10:57:56;;;;;;;10.98;3.17;;;22.50;96.50;;;;;;6131060;23;20018;-75
2022/10/05 11:00:29;;;;;;;6.88;2.65;;;22.90;95.30;;;;;;6132638;23;19998;-77
2022/10/05 11:03:20;;;;;;;7.60;2.50;;;23.30;94.50;;;;;;6155802;23;20014;-78
2022/10/05 11:06:06;;;;;;;4.35;2.17;;;24.00;93.60;;;;;;6132125;23;20029;-79
2022/10/05 11:08:46;;;;;;;5.45;2.00;;;24.60;92.60;;;;;;6132680;23;20025;-78
2022/10/05 11:11:39;;;;;;;3.75;1.58;;;25.30;91.30;;;;;;6133009;23;20021;-81
2022/10/05 11:14:42;;;;;;;5.50;2.13;;;25.60;90.30;;;;;;6133279;23;20312;-80
2022/10/05 11:17:52;;;;;;;2.30;1.52;;;25.90;89.20;;;;;;6132626;23;20010;-81
2022/10/05 11:20:39;;;;;;;1.80;0.77;;;26.30;87.30;;;;;;6102129;23;20016;-80
2022/10/05 11:27:14;;;;;;;1.85;0.77;;;27.30;78.90;;;;;;6132004;23;20048;-79
2022/10/05 11:30:17;;;;;;;2.00;0.90;;;28.60;77.80;;;;;;6131209;23;20009;-86
2022/10/05 11:32:49;;;;;;;2.35;0.75;;;28.70;75.10;;;;;;6131427;23;20196;-80
2022/10/05 11:35:47;;;;;;;1.95;0.80;;;29.20;73.40;;;;;;6131536;23;20057;-80
2022/10/05 11:38:16;;;;;;;2.67;0.68;;;29.90;71.40;;;;;;6133346;23;20046;-79
2022/10/05 11:41:09;;;;;;;2.22;0.88;;;29.30;71.10;;;;;;6130874;23;20006;-77
2022/10/05 11:43:55;;;;;;;2.17;0.80;;;30.00;70.90;;;;;;6132442;23;20057;-78
2022/10/05 11:46:33;;;;;;;2.53;0.77;;;29.70;69.20;;;;;;6132981;23;20147;-78
2022/10/05 11:49:18;;;;;;;2.17;0.80;;;29.40;69.70;;;;;;6130955;23;20033;-78
2022/10/05 11:52:07;;;;;;;2.55;1.02;;;29.80;69.60;;;;;;6130427;23;20013;-78
2022/10/05 11:54:59;;;;;;;3.38;0.85;;;30.70;68.30;;;;;;6130574;23;20016;-79
2022/10/05 11:57:36;;;;;;;1.60;0.80;;;31.10;68.00;;;;;;6132715;23;20010;-79
2022/10/05 12:00:17;;;;;;;3.67;0.95;;;30.70;67.70;;;;;;6156188;23;20018;-79
2022/10/05 12:03:26;;;;;;;1.67;0.90;;;31.40;66.00;;;;;;6131562;23;20049;-79
2022/10/05 12:06:09;;;;;;;2.42;1.02;;;32.00;65.60;;;;;;6105290;23;20081;-79
2022/10/05 12:08:47;;;;;;;2.30;0.93;;;32.30;64.30;;;;;;6132426;23;20006;-80
2022/10/05 12:11:41;;;;;;;1.95;0.93;;;32.30;65.10;;;;;;6133070;23;20057;-78
2022/10/05 12:14:32;;;;;;;2.90;1.13;;;32.50;65.50;;;;;;6133243;23;20422;-79
2022/10/05 12:17:20;;;;;;;2.15;0.93;;;32.50;63.90;;;;;;6132869;23;20304;-78
2022/10/05 12:20:06;;;;;;;1.98;1.10;;;31.80;64.20;;;;;;6127217;23;20052;-78
2022/10/05 12:22:44;;;;;;;1.77;0.70;;;32.00;64.20;;;;;;6132370;23;20002;-77
2022/10/05 12:28:56;;;;;;;2.97;1.00;;;33.20;61.70;;;;;;6132411;23;20049;-77
2022/10/05 12:31:34;;;;;;;1.70;0.82;;;33.30;60.90;;;;;;6132963;23;20001;-78
2022/10/05 12:34:14;;;;;;;2.92;0.80;;;33.50;61.20;;;;;;6132865;23;20329;-79
2022/10/05 12:37:22;;;;;;;2.70;0.77;;;33.60;60.00;;;;;;6133805;23;20256;-79
2022/10/05 12:40:25;;;;;;;2.60;0.90;;;34.30;60.60;;;;;;6133542;23;20053;-79
2022/10/05 12:43:03;;;;;;;2.63;0.73;;;35.40;59.40;;;;;;6133923;23;20010;-79
2022/10/05 12:45:51;;;;;;;2.17;0.82;;;36.10;58.20;;;;;;6133470;23;20012;-79
2022/10/05 12:48:20;;;;;;;1.92;0.95;;;34.20;58.70;;;;;;6159000;23;20065;-79
2022/10/05 12:50:52;;;;;;;2.75;0.70;;;35.20;57.90;;;;;;6135626;23;20018;-78
2022/10/05 12:57:11;;;;;;;1.95;0.70;;;35.20;57.50;;;;;;6157111;23;20109;-80
2022/10/05 12:59:54;;;;;;;1.65;0.50;;;34.80;56.60;;;;;;6101854;23;20014;-78
2022/10/05 13:02:49;;;;;;;1.63;0.75;;;35.00;57.10;;;;;;6102609;23;20038;-79
2022/10/05 13:06:04;;;;;;;1.17;0.43;;;35.70;53.60;;;;;;6102890;23;20030;-80
2022/10/05 13:09:07;;;;;;;1.10;0.40;;;35.00;55.70;;;;;;6102718;23;20220;-79
2022/10/05 13:11:43;;;;;;;1.65;0.40;;;34.70;53.70;;;;;;6102204;23;20025;-80
2022/10/05 13:14:36;;;;;;;3.15;0.70;;;35.00;53.30;;;;;;6102436;23;20010;-80
2022/10/05 13:17:24;;;;;;;1.45;0.50;;;35.50;51.70;;;;;;6102517;23;20010;-78
2022/10/05 13:20:11;;;;;;;2.33;0.63;;;35.30;51.80;;;;;;6102082;23;20505;-78
2022/10/05 13:22:42;;;;;;;1.48;0.40;;;34.80;51.50;;;;;;6101713;23;20006;-79
2022/10/05 13:25:31;;;;;;;1.30;0.52;;;34.80;51.40;;;;;;6102457;23;20216;-80
2022/10/05 13:28:02;;;;;;;1.50;0.43;;;34.00;52.30;;;;;;6102622;23;20118;-79
2022/10/05 13:30:28;;;;;;;1.35;0.43;;;34.70;52.10;;;;;;6102369;23;20312;-78
2022/10/05 13:33:10;;;;;;;1.58;0.45;;;34.50;51.00;;;;;;6102464;23;20511;-79
2022/10/05 13:36:06;;;;;;;2.08;0.60;;;34.20;52.10;;;;;;6107546;23;20014;-79
2022/10/05 13:39:12;;;;;;;3.00;0.50;;;34.70;51.70;;;;;;6129940;23;20076;-80
2022/10/05 13:41:49;;;;;;;2.37;0.43;;;36.00;51.10;;;;;;6156880;23;20225;-78
2022/10/05 13:44:41;;;;;;;2.05;0.40;;;36.00;50.80;;;;;;6157188;23;20291;-76
2022/10/05 13:47:46;;;;;;;1.13;0.40;;;35.90;50.30;;;;;;6133533;23;20041;-79
2022/10/05 13:51:11;;;;;;;1.70;0.47;;;35.80;49.60;;;;;;6154683;23;20057;-79
2022/10/05 13:58:07;;;;;;;2.08;0.40;;;35.40;49.00;;;;;;6133791;23;20016;-78
2022/10/05 14:00:49;;;;;;;1.10;0.30;;;36.60;49.10;;;;;;6132919;23;20008;-79
2022/10/05 14:03:31;;;;;;;1.33;0.40;;;36.30;48.60;;;;;;6131955;23;20209;-77
2022/10/05 14:06:00;;;;;;;1.85;0.60;;;36.70;48.90;;;;;;6133498;23;20267;-78
2022/10/05 14:08:33;;;;;;;2.20;0.40;;;36.70;48.70;;;;;;6132460;23;20012;-78
2022/10/05 14:10:59;;;;;;;3.63;0.45;;;37.50;49.60;;;;;;6133791;23;20053;-76
2022/10/05 14:13:47;;;;;;;2.67;0.60;;;38.40;47.30;;;;;;6156908;23;20044;-77
2022/10/05 14:16:22;;;;;;;1.67;0.30;;;36.90;47.10;;;;;;6133868;23;20002;-79
2022/10/05 14:19:02;;;;;;;1.35;0.40;;;35.20;49.10;;;;;;6133168;23;20105;-77
2022/10/05 14:21:33;;;;;;;1.88;0.77;;;35.00;51.20;;;;;;6132369;23;20227;-77
2022/10/05 14:24:21;;;;;;;2.10;0.65;;;36.40;50.30;;;;;;6132346;23;20006;-78
2022/10/05 14:26:54;;;;;;;1.10;0.40;;;37.00;48.60;;;;;;6156265;23;20053;-78
2022/10/05 14:29:35;;;;;;;1.08;0.40;;;36.90;48.00;;;;;;6133646;23;20008;-78
2022/10/05 14:32:12;;;;;;;4.75;0.40;;;36.50;49.90;;;;;;6133713;23;20006;-78
2022/10/05 14:35:13;;;;;;;3.60;0.45;;;35.60;49.70;;;;;;6131667;23;20005;-77
2022/10/05 14:37:48;;;;;;;1.70;0.80;;;34.90;49.30;;;;;;6133459;23;20168;-78
2022/10/05 14:40:32;;;;;;;1.50;0.65;;;34.90;52.70;;;;;;6133231;23;20022;-79
2022/10/05 14:43:18;;;;;;;2.35;0.68;;;36.90;54.30;;;;;;6131997;23;20240;-78
2022/10/05 14:46:48;;;;;;;5.20;3.58;;;38.20;50.90;;;;;;6133219;23;20041;-79
2022/10/05 14:49:15;;;;;;;;;;;39.80;48.20;;;;;;6133751;23;20153;-79
2022/10/05 14:52:41;;;;;;;3.08;1.17;;;40.60;49.80;;;;;;6130215;23;19960;-79
2022/10/05 14:59:05;;;;;;;3.65;1.05;;;40.60;50.70;;;;;;6131686;23;20006;-80
2022/10/05 15:01:42;;;;;;;3.75;1.05;;;40.10;51.10;;;;;;6132932;23;20173;-79
2022/10/05 15:04:52;;;;;;;3.58;1.10;;;40.10;50.50;;;;;;6133164;23;20068;-80
2022/10/05 15:08:03;;;;;;;4.40;1.13;;;40.10;50.60;;;;;;6132998;23;20001;-79
2022/10/05 15:10:28;;;;;;;3.65;1.17;;;40.50;51.40;;;;;;6101473;23;20002;-78
2022/10/05 15:12:59;;;;;;;27.63;25.20;;;40.00;50.80;;;;;;6125791;23;20013;-79
2022/10/05 15:15:38;;;;;;;5.45;2.38;;;40.10;51.00;;;;;;6133951;23;20299;-79
2022/10/05 15:18:18;;;;;;;;;;;40.80;51.60;;;;;;6134309;23;19997;-78
2022/10/05 15:21:08;;;;;;;2.85;1.52;;;41.40;51.70;;;;;;6155828;23;19901;-80
2022/10/05 15:23:41;;;;;;;3.20;1.40;;;42.00;50.50;;;;;;6132562;23;20054;-78
2022/10/05 15:26:28;;;;;;;5.00;1.20;;;42.40;51.50;;;;;;6131535;23;24361;-78
2022/10/05 15:29:37;;;;;;;2.42;1.30;;;41.70;50.00;;;;;;6132525;23;20005;-78
2022/10/05 15:32:13;;;;;;;1.98;1.17;;;41.50;50.10;;;;;;6131749;23;20006;-77
2022/10/05 15:34:58;;;;;;;;;;;41.50;50.70;;;;;;6133011;23;20013;-78
2022/10/05 15:37:31;;;;;;;2.78;1.35;;;41.60;50.60;;;;;;6156353;23;19900;-77
2022/10/05 15:40:04;;;;;;;1.60;0.93;;;41.20;49.80;;;;;;6133189;23;20013;-78
2022/10/05 15:42:42;;;;;;;3.58;1.13;;;40.90;50.80;;;;;;6132343;23;20002;-78
2022/10/05 15:45:31;;;;;;;3.70;1.10;;;40.90;50.50;;;;;;6133011;23;20014;-78
2022/10/05 15:48:27;;;;;;;2.30;1.15;;;40.90;50.90;;;;;;6133152;23;20009;-77
2022/10/05 15:51:01;;;;;;;3.35;1.73;;;40.20;51.10;;;;;;6132635;23;20002;-78
2022/10/05 15:53:42;;;;;;;4.38;2.15;;;39.30;52.90;;;;;;6156436;23;20201;-78
2022/10/05 15:56:37;;;;;;;5.68;3.20;;;38.30;55.00;;;;;;6131817;23;20280;-78
2022/10/05 15:59:37;;;;;;;4.30;2.38;;;38.00;54.20;;;;;;6133215;23;20036;-78
2022/10/05 16:02:13;;;;;;;7.88;5.53;;;38.60;55.00;;;;;;6132268;23;20268;-78
2022/10/05 16:08:49;;;;;;;4.20;1.70;;;39.00;54.70;;;;;;6131767;23;20074;-77
2022/10/05 16:10:57;;;;;;;2.58;1.15;;;38.80;54.10;;;;;;6133107;23;19913;-77
2022/10/05 16:13:34;;;;;;;7.50;4.88;;;38.40;52.90;;;;;;6134935;23;20006;-76
2022/10/05 16:16:25;;;;;;;2.90;1.60;;;38.50;53.50;;;;;;6133780;23;20049;-76
2022/10/05 16:18:54;;;;;;;2.53;0.70;;;37.70;52.30;;;;;;6134221;23;20002;-76
2022/10/05 16:21:42;;;;;;;2.67;0.75;;;36.60;49.80;;;;;;6133517;23;20006;-76
2022/10/05 16:24:32;;;;;;;1.55;0.70;;;34.40;50.20;;;;;;6118811;23;20034;-75
2022/10/05 16:27:03;;;;;;;1.42;0.47;;;32.80;52.20;;;;;;6134835;23;20030;-75
2022/10/05 16:29:51;;;;;;;1.60;0.60;;;30.60;53.00;;;;;;6134581;23;20296;-76
2022/10/05 16:32:26;;;;;;;;;;;29.50;56.10;;;;;;6134164;23;20212;-77
2022/10/05 16:34:57;;;;;;;2.20;1.10;;;28.70;57.60;;;;;;6134068;23;20158;-77
2022/10/05 16:37:48;;;;;;;1.95;0.63;;;28.10;60.10;;;;;;6134476;23;20146;-77
2022/10/05 16:40:36;;;;;;;1.83;0.70;;;27.50;58.10;;;;;;6133266;23;20053;-76
2022/10/05 16:43:43;;;;;;;3.47;0.90;;;27.10;58.90;;;;;;6134693;23;20295;-76
2022/10/05 16:46:30;;;;;;;5.63;2.38;;;26.70;61.40;;;;;;6134108;23;20069;-76
2022/10/05 16:49:17;;;;;;;3.65;1.00;;;26.10;59.90;;;;;;6134037;23;20021;-76
2022/10/05 16:52:00;;;;;;;3.60;1.40;;;25.70;60.80;;;;;;6133913;23;20002;-76
2022/10/05 16:54:31;;;;;;;2.70;1.00;;;25.20;61.70;;;;;;6134831;23;20006;-76
2022/10/05 16:57:12;;;;;;;2.05;0.95;;;25.10;64.30;;;;;;6133108;23;20006;-76
2022/10/05 17:00:11;;;;;;;4.03;1.20;;;24.80;62.60;;;;;;6134356;23;20287;-77
2022/10/05 17:03:33;;;;;;;3.35;1.05;;;24.50;63.20;;;;;;6158472;23;20014;-77
2022/10/05 17:06:19;;;;;;;3.75;0.85;;;24.20;66.70;;;;;;6113297;23;20014;-77
2022/10/05 17:09:15;;;;;;;2.83;1.00;;;24.00;67.10;;;;;;6134792;23;20212;-76
2022/10/05 17:11:49;;;;;;;3.63;1.50;;;23.90;67.70;;;;;;6135908;23;20025;-76
2022/10/05 17:14:28;;;;;;;6.55;4.10;;;23.70;66.80;;;;;;6136791;23;20029;-76
2022/10/05 17:17:02;;;;;;;19.67;12.80;;;23.40;65.90;;;;;;6134083;23;20053;-75
2022/10/05 17:19:31;;;;;;;10.98;6.78;;;23.20;67.00;;;;;;6134160;23;20006;-76
2022/10/05 17:22:38;;;;;;;5.97;2.53;;;22.90;67.50;;;;;;6132188;23;20347;-77
2022/10/05 17:25:33;;;;;;;5.63;2.03;;;22.80;68.80;;;;;;6132530;23;20014;-77
2022/10/05 17:28:17;;;;;;;6.22;3.15;;;22.60;67.70;;;;;;6134569;23;20025;-76
2022/10/05 17:31:04;;;;;;;3.25;1.90;;;22.40;68.50;;;;;;6133956;23;20008;-77
2022/10/05 17:33:32;;;;;;;7.03;4.10;;;22.20;67.70;;;;;;6134012;23;20122;-77
2022/10/05 17:36:03;;;;;;;5.15;3.05;;;22.10;68.50;;;;;;6133072;23;20029;-76
2022/10/05 17:38:33;;;;;;;4.20;2.95;;;22.00;71.70;;;;;;6132287;23;20170;-76
2022/10/05 17:41:18;;;;;;;6.68;2.10;;;21.80;71.40;;;;;;6132363;23;19994;-77
2022/10/05 17:44:12;;;;;;;6.88;4.30;;;21.60;70.70;;;;;;6131532;23;20034;-77
2022/10/05 17:46:44;;;;;;;7.03;4.20;;;21.40;71.40;;;;;;6131700;23;20002;-77
2022/10/05 17:49:16;;;;;;;8.20;6.15;;;21.20;73.10;;;;;;6132587;23;20002;-77
2022/10/05 17:57:38;;;;;;;;;;;20.90;75.30;;;;;;6133892;23;20002;-75
2022/10/05 18:00:33;;;;;;;3.28;1.77;;;20.80;74.50;;;;;;6133433;23;19948;-77
2022/10/05 18:02:59;;;;;;;3.83;1.98;;;20.60;73.70;;;;;;6106216;23;20021;-76
2022/10/05 18:05:26;;;;;;;3.45;1.30;;;20.50;77.10;;;;;;6155989;23;20021;-75
2022/10/05 18:08:11;;;;;;;3.63;1.90;;;20.50;75.70;;;;;;6131699;23;19998;-75
2022/10/05 18:10:57;;;;;;;3.80;2.00;;;20.50;76.90;;;;;;6132834;23;20009;-76
2022/10/05 18:13:45;;;;;;;4.20;2.00;;;20.30;75.70;;;;;;6133569;23;20002;-77
2022/10/05 18:16:11;;;;;;;4.70;1.30;;;20.20;76.60;;;;;;6133539;23;20193;-75
2022/10/05 18:18:43;;;;;;;4.80;2.13;;;20.20;77.10;;;;;;6133404;23;20450;-75
2022/10/05 18:21:17;;;;;;;3.95;1.55;;;20.10;78.30;;;;;;6133561;23;20002;-76
2022/10/05 18:23:58;;;;;;;2.53;1.42;;;20.10;76.10;;;;;;6133176;23;20010;-76
2022/10/05 18:26:33;;;;;;;3.30;1.40;;;20.10;76.10;;;;;;6134223;23;20002;-76
2022/10/05 18:32:25;;;;;;;3.45;1.10;;;20.10;76.60;;;;;;6133361;23;20008;-76
2022/10/05 18:35:11;;;;;;;3.38;1.15;;;20.00;77.40;;;;;;6132903;23;20069;-76
2022/10/05 18:37:46;;;;;;;2.95;1.40;;;19.90;77.60;;;;;;6133893;23;20090;-76
2022/10/05 18:40:28;;;;;;;3.25;1.20;;;19.80;77.90;;;;;;6134779;23;20024;-76
2022/10/05 18:43:26;;;;;;;4.43;1.40;;;19.80;78.30;;;;;;6132779;23;20006;-76
2022/10/05 18:46:10;;;;;;;3.72;1.52;;;19.60;78.90;;;;;;6134213;23;20010;-77
2022/10/05 18:49:17;;;;;;;2.63;1.30;;;19.60;80.10;;;;;;6132594;23;20002;-78
2022/10/05 18:52:01;;;;;;;2.17;1.00;;;19.50;79.50;;;;;;6132359;23;20187;-77
2022/10/05 18:54:36;;;;;;;2.58;1.10;;;19.40;79.80;;;;;;6134469;23;20014;-77
2022/10/05 18:57:33;;;;;;;3.03;1.48;;;19.30;81.10;;;;;;6134115;23;20240;-77
2022/10/05 19:00:21;;;;;;;2.40;1.10;;;19.30;80.70;;;;;;6133693;23;20037;-77
2022/10/05 19:02:49;;;;;;;;;;;19.30;80.50;;;;;;6132931;23;20208;-76
2022/10/05 19:05:26;;;;;;;5.38;1.67;;;19.40;80.40;;;;;;6157754;23;20064;-78
2022/10/05 19:08:07;;;;;;;4.18;1.40;;;19.40;80.60;;;;;;6134139;23;20013;-78
2022/10/05 19:10:36;;;;;;;3.95;1.60;;;19.30;81.10;;;;;;6135138;23;20053;-77
2022/10/05 19:13:28;;;;;;;3.55;1.60;;;19.20;81.60;;;;;;6135183;23;20002;-77
2022/10/05 19:16:27;;;;;;;3.58;1.60;;;19.10;81.70;;;;;;6130857;23;20068;-77
2022/10/05 19:19:22;;;;;;;5.72;1.85;;;19.10;82.40;;;;;;6133127;23;20016;-77
2022/10/05 19:22:03;;;;;;;3.67;1.70;;;18.90;83.00;;;;;;6133012;23;20304;-78
2022/10/05 19:25:06;;;;;;;4.57;1.80;;;18.80;83.60;;;;;;6134321;23;20029;-77
2022/10/05 19:27:55;;;;;;;4.15;1.50;;;18.70;84.10;;;;;;6134469;23;20002;-78
2022/10/05 19:30:24;;;;;;;4.95;1.67;;;18.70;84.30;;;;;;6134354;23;20013;-77
2022/10/05 19:32:52;;;;;;;;;;;18.70;84.60;;;;;;6134556;23;20033;-77
2022/10/05 19:35:30;;;;;;;10.07;2.45;;;18.60;85.30;;;;;;6134283;23;19931;-77
2022/10/05 19:38:14;;;;;;;5.28;1.40;;;18.60;85.50;;;;;;6133584;23;20119;-77
2022/10/05 19:41:15;;;;;;;4.63;1.60;;;18.60;85.70;;;;;;6134193;23;20006;-77
2022/10/05 19:44:00;;;;;;;2.78;1.30;;;18.60;85.80;;;;;;6127593;23;20311;-78
2022/10/05 19:46:57;;;;;;;4.03;1.67;;;18.60;86.00;;;;;;6133318;23;20002;-77
2022/10/05 19:49:55;;;;;;;5.45;2.28;;;18.60;86.10;;;;;;6134485;23;20196;-77
2022/10/05 19:52:41;;;;;;;3.92;1.60;;;18.50;86.80;;;;;;6133394;23;20033;-78
2022/10/05 19:55:19;;;;;;;4.68;1.70;;;18.30;87.00;;;;;;6134280;23;20014;-76
2022/10/05 19:57:47;;;;;;;4.43;1.60;;;18.30;87.40;;;;;;6133596;23;20088;-78
2022/10/05 20:00:44;;;;;;;4.72;1.80;;;18.20;87.50;;;;;;6134253;23;20016;-77
2022/10/05 20:03:16;;;;;;;4.05;2.13;;;18.20;88.20;;;;;;6133080;23;20070;-78
2022/10/05 20:05:42;;;;;;;4.15;2.03;;;18.10;88.80;;;;;;6132250;23;20006;-78
2022/10/05 20:08:16;;;;;;;4.63;2.10;;;18.00;89.40;;;;;;6134216;23;20033;-77
2022/10/05 20:10:43;;;;;;;6.43;2.30;;;17.80;90.10;;;;;;6133626;23;20288;-78
2022/10/05 20:13:21;;;;;;;5.03;2.35;;;17.70;90.50;;;;;;6134452;23;20009;-77